sensor_id;sensor_type;location;lat;lon;timestamp;pressure;altitude;pressure_sealevel;temperature
65823;BMP180;52585;47.566;19.056;2023-02-27T00:01:38;100344.20;;;4.50
65823;BMP180;52585;47.566;19.056;2023-02-27T00:04:07;100344.40;;;4.50
65823;BMP180;52585;47.566;19.056;2023-02-27T00:06:44;100351.80;;;4.44
65823;BMP180;52585;47.566;19.056;2023-02-27T00:09:10;100350.20;;;4.40
65823;BMP180;52585;47.566;19.056;2023-02-27T00:11:36;100351.60;;;4.40
65823;BMP180;52585;47.566;19.056;2023-02-27T00:14:03;100353.00;;;4.40
65823;BMP180;52585;47.566;19.056;2023-02-27T00:16:29;100359.40;;;4.40
65823;BMP180;52585;47.566;19.056;2023-02-27T00:18:54;100362.20;;;4.40
65823;BMP180;52585;47.566;19.056;2023-02-27T00:21:23;100362.20;;;4.32
65823;BMP180;52585;47.566;19.056;2023-02-27T00:23:49;100366.40;;;4.30
65823;BMP180;52585;47.566;19.056;2023-02-27T00:26:15;100363.60;;;4.30
65823;BMP180;52585;47.566;19.056;2023-02-27T00:28:41;100373.00;;;4.30
65823;BMP180;52585;47.566;19.056;2023-02-27T00:31:07;100375.80;;;4.22
65823;BMP180;52585;47.566;19.056;2023-02-27T00:33:32;100381.80;;;4.20
65823;BMP180;52585;47.566;19.056;2023-02-27T00:36:00;100381.80;;;4.20
65823;BMP180;52585;47.566;19.056;2023-02-27T00:38:26;100387.00;;;4.20
65823;BMP180;52585;47.566;19.056;2023-02-27T00:40:54;100390.60;;;4.14
65823;BMP180;52585;47.566;19.056;2023-02-27T00:43:20;100395.20;;;4.10
65823;BMP180;52585;47.566;19.056;2023-02-27T00:45:47;100392.60;;;4.10
65823;BMP180;52585;47.566;19.056;2023-02-27T00:48:14;100392.00;;;4.10
65823;BMP180;52585;47.566;19.056;2023-02-27T00:50:39;100392.80;;;4.10
65823;BMP180;52585;47.566;19.056;2023-02-27T00:53:05;100397.00;;;4.00
65823;BMP180;52585;47.566;19.056;2023-02-27T00:55:31;100395.60;;;4.00
65823;BMP180;52585;47.566;19.056;2023-02-27T00:57:56;100404.00;;;4.00
65823;BMP180;52585;47.566;19.056;2023-02-27T01:00:22;100399.20;;;4.00
65823;BMP180;52585;47.566;19.056;2023-02-27T01:02:48;100398.20;;;4.00
65823;BMP180;52585;47.566;19.056;2023-02-27T01:05:14;100401.20;;;4.00
65823;BMP180;52585;47.566;19.056;2023-02-27T01:07:39;100407.40;;;4.00
65823;BMP180;52585;47.566;19.056;2023-02-27T01:10:07;100413.60;;;3.98
65823;BMP180;52585;47.566;19.056;2023-02-27T01:12:34;100418.40;;;3.96
65823;BMP180;52585;47.566;19.056;2023-02-27T01:15:00;100420.40;;;3.98
65823;BMP180;52585;47.566;19.056;2023-02-27T01:17:26;100419.20;;;3.94
65823;BMP180;52585;47.566;19.056;2023-02-27T01:19:51;100418.20;;;3.90
65823;BMP180;52585;47.566;19.056;2023-02-27T01:22:17;100423.40;;;3.90
65823;BMP180;52585;47.566;19.056;2023-02-27T01:24:43;100422.20;;;3.90
65823;BMP180;52585;47.566;19.056;2023-02-27T01:27:08;100427.80;;;3.90
65823;BMP180;52585;47.566;19.056;2023-02-27T01:29:34;100427.60;;;3.90
65823;BMP180;52585;47.566;19.056;2023-02-27T01:32:00;100428.80;;;3.82
65823;BMP180;52585;47.566;19.056;2023-02-27T01:34:26;100428.80;;;3.88
65823;BMP180;52585;47.566;19.056;2023-02-27T01:36:51;100431.20;;;3.88
65823;BMP180;52585;47.566;19.056;2023-02-27T01:39:17;100430.80;;;3.88
65823;BMP180;52585;47.566;19.056;2023-02-27T01:41:43;100431.20;;;3.90
65823;BMP180;52585;47.566;19.056;2023-02-27T01:44:12;100431.00;;;3.86
65823;BMP180;52585;47.566;19.056;2023-02-27T01:46:39;100430.40;;;3.88
65823;BMP180;52585;47.566;19.056;2023-02-27T01:49:20;100428.40;;;3.84
65823;BMP180;52585;47.566;19.056;2023-02-27T01:51:55;100424.80;;;3.80
65823;BMP180;52585;47.566;19.056;2023-02-27T01:54:25;100428.00;;;3.82
65823;BMP180;52585;47.566;19.056;2023-02-27T01:56:51;100424.40;;;3.80
65823;BMP180;52585;47.566;19.056;2023-02-27T01:59:18;100425.40;;;3.80
65823;BMP180;52585;47.566;19.056;2023-02-27T02:01:44;100424.80;;;3.80
65823;BMP180;52585;47.566;19.056;2023-02-27T02:04:38;100432.20;;;3.80
65823;BMP180;52585;47.566;19.056;2023-02-27T02:07:09;100430.60;;;3.80
65823;BMP180;52585;47.566;19.056;2023-02-27T02:09:47;100435.00;;;3.80
65823;BMP180;52585;47.566;19.056;2023-02-27T02:12:15;100438.80;;;3.78
65823;BMP180;52585;47.566;19.056;2023-02-27T02:14:43;100440.40;;;3.80
65823;BMP180;52585;47.566;19.056;2023-02-27T02:18:11;100444.60;;;3.72
65823;BMP180;52585;47.566;19.056;2023-02-27T02:26:46;100452.80;;;3.70
65823;BMP180;52585;47.566;19.056;2023-02-27T02:35:11;100471.60;;;3.70
65823;BMP180;52585;47.566;19.056;2023-02-27T02:40:52;100476.60;;;3.70
65823;BMP180;52585;47.566;19.056;2023-02-27T02:43:35;100477.20;;;3.70
65823;BMP180;52585;47.566;19.056;2023-02-27T02:49:21;100479.00;;;3.70
65823;BMP180;52585;47.566;19.056;2023-02-27T02:51:55;100484.60;;;3.70
65823;BMP180;52585;47.566;19.056;2023-02-27T02:59:43;100490.20;;;3.70
65823;BMP180;52585;47.566;19.056;2023-02-27T03:02:17;100490.80;;;3.70
65823;BMP180;52585;47.566;19.056;2023-02-27T03:05:13;100487.20;;;3.70
65823;BMP180;52585;47.566;19.056;2023-02-27T03:07:50;100491.00;;;3.70
65823;BMP180;52585;47.566;19.056;2023-02-27T03:10:32;100492.20;;;3.70
65823;BMP180;52585;47.566;19.056;2023-02-27T03:16:03;100498.60;;;3.70
65823;BMP180;52585;47.566;19.056;2023-02-27T03:18:42;100503.40;;;3.70
65823;BMP180;52585;47.566;19.056;2023-02-27T03:21:26;100503.80;;;3.70
65823;BMP180;52585;47.566;19.056;2023-02-27T03:23:56;100508.20;;;3.70
65823;BMP180;52585;47.566;19.056;2023-02-27T03:26:35;100511.20;;;3.70
65823;BMP180;52585;47.566;19.056;2023-02-27T03:29:08;100514.80;;;3.70
65823;BMP180;52585;47.566;19.056;2023-02-27T03:31:45;100514.60;;;3.70
65823;BMP180;52585;47.566;19.056;2023-02-27T03:34:37;100517.00;;;3.70
65823;BMP180;52585;47.566;19.056;2023-02-27T03:48:19;100531.40;;;3.62
65823;BMP180;52585;47.566;19.056;2023-02-27T03:50:44;100529.60;;;3.62
65823;BMP180;52585;47.566;19.056;2023-02-27T03:53:42;100529.40;;;3.68
65823;BMP180;52585;47.566;19.056;2023-02-27T03:56:13;100536.20;;;3.70
65823;BMP180;52585;47.566;19.056;2023-02-27T03:58:40;100534.80;;;3.70
65823;BMP180;52585;47.566;19.056;2023-02-27T04:01:05;100540.20;;;3.70
65823;BMP180;52585;47.566;19.056;2023-02-27T04:03:36;100540.00;;;3.70
65823;BMP180;52585;47.566;19.056;2023-02-27T04:06:04;100542.20;;;3.70
65823;BMP180;52585;47.566;19.056;2023-02-27T04:09:28;100539.40;;;3.70
65823;BMP180;52585;47.566;19.056;2023-02-27T04:21:34;100547.20;;;3.70
65823;BMP180;52585;47.566;19.056;2023-02-27T04:26:52;100543.80;;;3.70
65823;BMP180;52585;47.566;19.056;2023-02-27T04:29:52;100545.60;;;3.70
65823;BMP180;52585;47.566;19.056;2023-02-27T04:32:21;100547.40;;;3.70
65823;BMP180;52585;47.566;19.056;2023-02-27T04:35:01;100551.60;;;3.70
65823;BMP180;52585;47.566;19.056;2023-02-27T04:37:33;100557.20;;;3.70
65823;BMP180;52585;47.566;19.056;2023-02-27T04:40:09;100561.00;;;3.70
65823;BMP180;52585;47.566;19.056;2023-02-27T04:42:47;100563.40;;;3.70
65823;BMP180;52585;47.566;19.056;2023-02-27T04:45:19;100567.40;;;3.70
65823;BMP180;52585;47.566;19.056;2023-02-27T04:47:56;100570.00;;;3.72
65823;BMP180;52585;47.566;19.056;2023-02-27T04:50:36;100571.40;;;3.78
65823;BMP180;52585;47.566;19.056;2023-02-27T04:53:22;100564.80;;;3.74
65823;BMP180;52585;47.566;19.056;2023-02-27T04:56:03;100567.80;;;3.80
65823;BMP180;52585;47.566;19.056;2023-02-27T04:58:38;100574.40;;;3.80
65823;BMP180;52585;47.566;19.056;2023-02-27T05:01:17;100573.60;;;3.80
65823;BMP180;52585;47.566;19.056;2023-02-27T05:03:51;100572.40;;;3.70
65823;BMP180;52585;47.566;19.056;2023-02-27T05:06:22;100581.80;;;3.74
65823;BMP180;52585;47.566;19.056;2023-02-27T05:17:33;100583.60;;;3.80
65823;BMP180;52585;47.566;19.056;2023-02-27T05:20:01;100598.80;;;3.80
65823;BMP180;52585;47.566;19.056;2023-02-27T05:22:45;100598.20;;;3.76
65823;BMP180;52585;47.566;19.056;2023-02-27T05:25:26;100603.60;;;3.70
65823;BMP180;52585;47.566;19.056;2023-02-27T05:28:03;100612.60;;;3.70
65823;BMP180;52585;47.566;19.056;2023-02-27T05:30:48;100609.80;;;3.72
65823;BMP180;52585;47.566;19.056;2023-02-27T05:33:29;100614.40;;;3.72
65823;BMP180;52585;47.566;19.056;2023-02-27T05:36:24;100612.80;;;3.70
65823;BMP180;52585;47.566;19.056;2023-02-27T05:38:58;100625.60;;;3.70
65823;BMP180;52585;47.566;19.056;2023-02-27T05:41:32;100627.60;;;3.70
65823;BMP180;52585;47.566;19.056;2023-02-27T05:44:10;100632.60;;;3.70
65823;BMP180;52585;47.566;19.056;2023-02-27T05:46:45;100632.80;;;3.68
65823;BMP180;52585;47.566;19.056;2023-02-27T05:49:25;100641.40;;;3.60
65823;BMP180;52585;47.566;19.056;2023-02-27T05:51:56;100646.60;;;3.60
65823;BMP180;52585;47.566;19.056;2023-02-27T05:54:34;100643.80;;;3.62
65823;BMP180;52585;47.566;19.056;2023-02-27T05:57:03;100648.60;;;3.60
65823;BMP180;52585;47.566;19.056;2023-02-27T05:59:49;100654.00;;;3.60
65823;BMP180;52585;47.566;19.056;2023-02-27T06:02:18;100654.00;;;3.60
65823;BMP180;52585;47.566;19.056;2023-02-27T06:04:44;100662.60;;;3.60
65823;BMP180;52585;47.566;19.056;2023-02-27T06:07:12;100662.20;;;3.60
65823;BMP180;52585;47.566;19.056;2023-02-27T06:09:40;100664.20;;;3.60
65823;BMP180;52585;47.566;19.056;2023-02-27T06:12:06;100666.40;;;3.60
65823;BMP180;52585;47.566;19.056;2023-02-27T06:14:32;100674.40;;;3.60
65823;BMP180;52585;47.566;19.056;2023-02-27T06:16:57;100680.80;;;3.60
65823;BMP180;52585;47.566;19.056;2023-02-27T06:19:23;100685.40;;;3.60
65823;BMP180;52585;47.566;19.056;2023-02-27T06:21:48;100684.40;;;3.60
65823;BMP180;52585;47.566;19.056;2023-02-27T06:24:14;100685.80;;;3.60
65823;BMP180;52585;47.566;19.056;2023-02-27T06:26:39;100693.00;;;3.60
65823;BMP180;52585;47.566;19.056;2023-02-27T06:29:05;100698.20;;;3.60
65823;BMP180;52585;47.566;19.056;2023-02-27T06:31:31;100698.80;;;3.60
65823;BMP180;52585;47.566;19.056;2023-02-27T06:33:56;100703.00;;;3.60
65823;BMP180;52585;47.566;19.056;2023-02-27T06:36:22;100714.40;;;3.60
65823;BMP180;52585;47.566;19.056;2023-02-27T06:38:48;100716.60;;;3.60
65823;BMP180;52585;47.566;19.056;2023-02-27T06:41:13;100717.40;;;3.60
65823;BMP180;52585;47.566;19.056;2023-02-27T06:43:39;100723.80;;;3.60
65823;BMP180;52585;47.566;19.056;2023-02-27T06:46:05;100728.60;;;3.60
65823;BMP180;52585;47.566;19.056;2023-02-27T06:48:31;100732.60;;;3.64
65823;BMP180;52585;47.566;19.056;2023-02-27T06:50:57;100744.00;;;3.68
65823;BMP180;52585;47.566;19.056;2023-02-27T06:53:24;100746.80;;;3.70
65823;BMP180;52585;47.566;19.056;2023-02-27T06:55:50;100746.60;;;3.70
65823;BMP180;52585;47.566;19.056;2023-02-27T06:58:16;100754.40;;;3.70
65823;BMP180;52585;47.566;19.056;2023-02-27T07:00:42;100759.60;;;3.70
65823;BMP180;52585;47.566;19.056;2023-02-27T07:03:09;100760.40;;;3.70
65823;BMP180;52585;47.566;19.056;2023-02-27T07:05:35;100766.40;;;3.70
65823;BMP180;52585;47.566;19.056;2023-02-27T07:08:02;100762.20;;;3.70
65823;BMP180;52585;47.566;19.056;2023-02-27T07:10:29;100764.40;;;3.80
65823;BMP180;52585;47.566;19.056;2023-02-27T07:12:55;100773.20;;;3.80
65823;BMP180;52585;47.566;19.056;2023-02-27T07:15:21;100766.40;;;3.80
65823;BMP180;52585;47.566;19.056;2023-02-27T07:17:46;100767.60;;;3.80
65823;BMP180;52585;47.566;19.056;2023-02-27T07:20:12;100763.40;;;3.80
65823;BMP180;52585;47.566;19.056;2023-02-27T07:22:39;100763.20;;;3.80
65823;BMP180;52585;47.566;19.056;2023-02-27T07:25:06;100768.40;;;3.80
65823;BMP180;52585;47.566;19.056;2023-02-27T07:27:32;100765.60;;;3.80
65823;BMP180;52585;47.566;19.056;2023-02-27T07:29:58;100763.00;;;3.80
65823;BMP180;52585;47.566;19.056;2023-02-27T07:32:23;100771.40;;;3.80
65823;BMP180;52585;47.566;19.056;2023-02-27T07:34:49;100770.60;;;3.86
65823;BMP180;52585;47.566;19.056;2023-02-27T07:37:15;100780.20;;;3.90
65823;BMP180;52585;47.566;19.056;2023-02-27T07:39:41;100778.80;;;3.90
65823;BMP180;52585;47.566;19.056;2023-02-27T07:42:06;100783.20;;;3.90
65823;BMP180;52585;47.566;19.056;2023-02-27T07:44:32;100782.20;;;3.90
65823;BMP180;52585;47.566;19.056;2023-02-27T07:46:58;100781.00;;;3.98
65823;BMP180;52585;47.566;19.056;2023-02-27T07:49:24;100791.00;;;4.00
65823;BMP180;52585;47.566;19.056;2023-02-27T07:51:49;100793.60;;;4.00
65823;BMP180;52585;47.566;19.056;2023-02-27T07:54:15;100794.20;;;4.00
65823;BMP180;52585;47.566;19.056;2023-02-27T07:56:40;100794.40;;;4.02
65823;BMP180;52585;47.566;19.056;2023-02-27T07:59:06;100796.60;;;4.10
65823;BMP180;52585;47.566;19.056;2023-02-27T08:01:31;100800.20;;;4.10
65823;BMP180;52585;47.566;19.056;2023-02-27T08:03:57;100799.20;;;4.10
65823;BMP180;52585;47.566;19.056;2023-02-27T08:06:23;100799.00;;;4.20
65823;BMP180;52585;47.566;19.056;2023-02-27T08:08:50;100797.60;;;4.20
65823;BMP180;52585;47.566;19.056;2023-02-27T08:11:16;100799.60;;;4.26
65823;BMP180;52585;47.566;19.056;2023-02-27T08:13:43;100797.80;;;4.30
65823;BMP180;52585;47.566;19.056;2023-02-27T08:16:11;100801.20;;;4.40
65823;BMP180;52585;47.566;19.056;2023-02-27T08:18:37;100809.80;;;4.40
65823;BMP180;52585;47.566;19.056;2023-02-27T08:21:03;100800.80;;;4.48
65823;BMP180;52585;47.566;19.056;2023-02-27T08:23:30;100813.00;;;4.50
65823;BMP180;52585;47.566;19.056;2023-02-27T08:25:56;100807.40;;;4.50
65823;BMP180;52585;47.566;19.056;2023-02-27T08:28:24;100811.80;;;4.50
65823;BMP180;52585;47.566;19.056;2023-02-27T08:30:50;100818.20;;;4.50
65823;BMP180;52585;47.566;19.056;2023-02-27T08:33:15;100823.20;;;4.50
65823;BMP180;52585;47.566;19.056;2023-02-27T08:35:41;100827.80;;;4.52
65823;BMP180;52585;47.566;19.056;2023-02-27T08:38:07;100833.80;;;4.52
65823;BMP180;52585;47.566;19.056;2023-02-27T08:40:33;100839.00;;;4.58
65823;BMP180;52585;47.566;19.056;2023-02-27T08:42:59;100847.40;;;4.60
65823;BMP180;52585;47.566;19.056;2023-02-27T08:45:26;100847.40;;;4.60
65823;BMP180;52585;47.566;19.056;2023-02-27T08:47:51;100850.60;;;4.60
65823;BMP180;52585;47.566;19.056;2023-02-27T08:50:17;100856.20;;;4.60
65823;BMP180;52585;47.566;19.056;2023-02-27T08:52:43;100856.60;;;4.60
65823;BMP180;52585;47.566;19.056;2023-02-27T08:55:08;100860.40;;;4.60
65823;BMP180;52585;47.566;19.056;2023-02-27T08:57:34;100862.80;;;4.66
65823;BMP180;52585;47.566;19.056;2023-02-27T09:00:00;100866.40;;;4.70
65823;BMP180;52585;47.566;19.056;2023-02-27T09:02:26;100877.80;;;4.70
65823;BMP180;52585;47.566;19.056;2023-02-27T09:04:52;100880.20;;;4.70
65823;BMP180;52585;47.566;19.056;2023-02-27T09:07:18;100882.80;;;4.76
65823;BMP180;52585;47.566;19.056;2023-02-27T09:09:44;100883.00;;;4.80
65823;BMP180;52585;47.566;19.056;2023-02-27T09:12:11;100883.60;;;4.80
65823;BMP180;52585;47.566;19.056;2023-02-27T09:14:36;100889.20;;;4.80
65823;BMP180;52585;47.566;19.056;2023-02-27T09:17:05;100889.80;;;4.80
65823;BMP180;52585;47.566;19.056;2023-02-27T09:19:31;100886.00;;;4.80
65823;BMP180;52585;47.566;19.056;2023-02-27T09:21:57;100883.00;;;4.84
65823;BMP180;52585;47.566;19.056;2023-02-27T09:24:23;100886.00;;;4.90
65823;BMP180;52585;47.566;19.056;2023-02-27T09:26:48;100882.40;;;4.90
65823;BMP180;52585;47.566;19.056;2023-02-27T09:29:14;100885.40;;;4.90
65823;BMP180;52585;47.566;19.056;2023-02-27T09:31:39;100888.00;;;4.96
65823;BMP180;52585;47.566;19.056;2023-02-27T09:34:05;100888.60;;;5.00
65823;BMP180;52585;47.566;19.056;2023-02-27T09:36:31;100885.80;;;5.00
65823;BMP180;52585;47.566;19.056;2023-02-27T09:38:58;100890.20;;;5.00
65823;BMP180;52585;47.566;19.056;2023-02-27T09:44:38;100894.80;;;5.10
65823;BMP180;52585;47.566;19.056;2023-02-27T09:47:41;100893.20;;;5.10
65823;BMP180;52585;47.566;19.056;2023-02-27T09:50:47;100890.20;;;5.10
65823;BMP180;52585;47.566;19.056;2023-02-27T09:53:30;100887.00;;;5.10
65823;BMP180;52585;47.566;19.056;2023-02-27T10:05:29;100888.80;;;5.20
65823;BMP180;52585;47.566;19.056;2023-02-27T10:11:06;100897.60;;;5.30
65823;BMP180;52585;47.566;19.056;2023-02-27T10:16:27;100898.60;;;5.30
65823;BMP180;52585;47.566;19.056;2023-02-27T10:19:23;100896.80;;;5.30
65823;BMP180;52585;47.566;19.056;2023-02-27T10:21:53;100895.60;;;5.40
65823;BMP180;52585;47.566;19.056;2023-02-27T10:24:36;100895.40;;;5.40
65823;BMP180;52585;47.566;19.056;2023-02-27T10:27:06;100893.00;;;5.40
65823;BMP180;52585;47.566;19.056;2023-02-27T10:29:38;100901.20;;;5.40
65823;BMP180;52585;47.566;19.056;2023-02-27T10:32:27;100901.60;;;5.40
65823;BMP180;52585;47.566;19.056;2023-02-27T10:35:11;100895.20;;;5.40
65823;BMP180;52585;47.566;19.056;2023-02-27T10:37:48;100900.60;;;5.40
65823;BMP180;52585;47.566;19.056;2023-02-27T10:40:16;100895.80;;;5.40
65823;BMP180;52585;47.566;19.056;2023-02-27T10:42:44;100897.80;;;5.46
65823;BMP180;52585;47.566;19.056;2023-02-27T10:45:14;100895.40;;;5.50
65823;BMP180;52585;47.566;19.056;2023-02-27T10:47:41;100893.60;;;5.50
65823;BMP180;52585;47.566;19.056;2023-02-27T10:52:52;100888.80;;;5.54
65823;BMP180;52585;47.566;19.056;2023-02-27T10:55:25;100887.80;;;5.54
65823;BMP180;52585;47.566;19.056;2023-02-27T10:57:54;100887.60;;;5.60
65823;BMP180;52585;47.566;19.056;2023-02-27T11:00:51;100889.00;;;5.60
65823;BMP180;52585;47.566;19.056;2023-02-27T11:03:34;100896.00;;;5.60
65823;BMP180;52585;47.566;19.056;2023-02-27T11:08:33;100896.40;;;5.60
65823;BMP180;52585;47.566;19.056;2023-02-27T11:13:34;100893.80;;;5.60
65823;BMP180;52585;47.566;19.056;2023-02-27T11:16:11;100894.40;;;5.60
65823;BMP180;52585;47.566;19.056;2023-02-27T11:18:43;100894.00;;;5.60
65823;BMP180;52585;47.566;19.056;2023-02-27T11:24:17;100900.20;;;5.68
65823;BMP180;52585;47.566;19.056;2023-02-27T11:27:01;100905.20;;;5.70
65823;BMP180;52585;47.566;19.056;2023-02-27T11:29:30;100909.60;;;5.76
65823;BMP180;52585;47.566;19.056;2023-02-27T11:32:13;100904.80;;;5.80
65823;BMP180;52585;47.566;19.056;2023-02-27T11:34:51;100901.00;;;5.80
65823;BMP180;52585;47.566;19.056;2023-02-27T11:37:34;100907.60;;;5.90
65823;BMP180;52585;47.566;19.056;2023-02-27T11:40:15;100908.00;;;5.90
65823;BMP180;52585;47.566;19.056;2023-02-27T11:42:59;100911.00;;;5.90
65823;BMP180;52585;47.566;19.056;2023-02-27T11:45:53;100910.80;;;5.90
65823;BMP180;52585;47.566;19.056;2023-02-27T11:48:34;100903.20;;;5.90
65823;BMP180;52585;47.566;19.056;2023-02-27T11:51:23;100903.60;;;5.90
65823;BMP180;52585;47.566;19.056;2023-02-27T11:57:19;100908.20;;;5.90
65823;BMP180;52585;47.566;19.056;2023-02-27T12:05:19;100907.40;;;5.98
65823;BMP180;52585;47.566;19.056;2023-02-27T12:07:59;100897.80;;;6.00
65823;BMP180;52585;47.566;19.056;2023-02-27T12:13:20;100901.20;;;6.00
65823;BMP180;52585;47.566;19.056;2023-02-27T12:21:14;100909.40;;;6.10
65823;BMP180;52585;47.566;19.056;2023-02-27T12:24:29;100916.80;;;6.12
65823;BMP180;52585;47.566;19.056;2023-02-27T12:29:53;100915.60;;;6.20
65823;BMP180;52585;47.566;19.056;2023-02-27T12:32:46;100916.80;;;6.20
65823;BMP180;52585;47.566;19.056;2023-02-27T12:35:23;100917.20;;;6.20
65823;BMP180;52585;47.566;19.056;2023-02-27T12:37:51;100920.60;;;6.20
65823;BMP180;52585;47.566;19.056;2023-02-27T12:40:19;100919.20;;;6.20
65823;BMP180;52585;47.566;19.056;2023-02-27T12:57:36;100930.60;;;6.30
65823;BMP180;52585;47.566;19.056;2023-02-27T13:00:18;100928.80;;;6.30
65823;BMP180;52585;47.566;19.056;2023-02-27T13:05:35;100938.60;;;6.30
65823;BMP180;52585;47.566;19.056;2023-02-27T13:16:45;100939.20;;;6.38
65823;BMP180;52585;47.566;19.056;2023-02-27T13:19:23;100935.40;;;6.40
65823;BMP180;52585;47.566;19.056;2023-02-27T13:22:05;100934.20;;;6.40
65823;BMP180;52585;47.566;19.056;2023-02-27T13:24:44;100935.60;;;6.40
65823;BMP180;52585;47.566;19.056;2023-02-27T13:27:22;100936.40;;;6.40
65823;BMP180;52585;47.566;19.056;2023-02-27T13:38:45;100946.20;;;6.38
65823;BMP180;52585;47.566;19.056;2023-02-27T13:43:53;100947.60;;;6.30
65823;BMP180;52585;47.566;19.056;2023-02-27T13:59:40;100951.00;;;6.32
65823;BMP180;52585;47.566;19.056;2023-02-27T14:04:44;100950.00;;;6.30
65823;BMP180;52585;47.566;19.056;2023-02-27T14:07:16;100947.20;;;6.30
65823;BMP180;52585;47.566;19.056;2023-02-27T14:09:46;100946.00;;;6.32
65823;BMP180;52585;47.566;19.056;2023-02-27T14:12:41;100941.80;;;6.32
65823;BMP180;52585;47.566;19.056;2023-02-27T14:17:45;100939.80;;;6.38
65823;BMP180;52585;47.566;19.056;2023-02-27T14:25:45;100943.60;;;6.40
65823;BMP180;52585;47.566;19.056;2023-02-27T14:28:50;100941.40;;;6.40
65823;BMP180;52585;47.566;19.056;2023-02-27T14:31:29;100940.00;;;6.40
65823;BMP180;52585;47.566;19.056;2023-02-27T14:33:59;100948.00;;;6.42
65823;BMP180;52585;47.566;19.056;2023-02-27T14:36:41;100948.20;;;6.48
65823;BMP180;52585;47.566;19.056;2023-02-27T14:44:41;100948.60;;;6.50
65823;BMP180;52585;47.566;19.056;2023-02-27T14:47:28;100950.00;;;6.50
65823;BMP180;52585;47.566;19.056;2023-02-27T14:49:54;100950.20;;;6.50
65823;BMP180;52585;47.566;19.056;2023-02-27T14:52:25;100949.80;;;6.50
65823;BMP180;52585;47.566;19.056;2023-02-27T14:54:52;100950.20;;;6.50
65823;BMP180;52585;47.566;19.056;2023-02-27T14:57:29;100952.00;;;6.50
65823;BMP180;52585;47.566;19.056;2023-02-27T14:59:55;100956.40;;;6.50
65823;BMP180;52585;47.566;19.056;2023-02-27T15:02:27;100957.20;;;6.50
65823;BMP180;52585;47.566;19.056;2023-02-27T15:05:15;100966.00;;;6.50
65823;BMP180;52585;47.566;19.056;2023-02-27T15:07:46;100968.60;;;6.50
65823;BMP180;52585;47.566;19.056;2023-02-27T15:10:27;100971.40;;;6.50
65823;BMP180;52585;47.566;19.056;2023-02-27T15:12:58;100973.40;;;6.50
65823;BMP180;52585;47.566;19.056;2023-02-27T15:15:24;100976.80;;;6.50
65823;BMP180;52585;47.566;19.056;2023-02-27T15:17:54;100973.60;;;6.48
65823;BMP180;52585;47.566;19.056;2023-02-27T15:23:26;100986.40;;;6.40
65823;BMP180;52585;47.566;19.056;2023-02-27T15:25:57;100992.60;;;6.40
65823;BMP180;52585;47.566;19.056;2023-02-27T15:28:31;100993.00;;;6.40
65823;BMP180;52585;47.566;19.056;2023-02-27T15:31:00;101000.20;;;6.40
65823;BMP180;52585;47.566;19.056;2023-02-27T15:33:32;101001.40;;;6.40
65823;BMP180;52585;47.566;19.056;2023-02-27T15:35:59;101006.20;;;6.40
65823;BMP180;52585;47.566;19.056;2023-02-27T15:38:28;101005.40;;;6.38
65823;BMP180;52585;47.566;19.056;2023-02-27T15:40:56;100999.40;;;6.32
65823;BMP180;52585;47.566;19.056;2023-02-27T15:43:25;101007.00;;;6.32
65823;BMP180;52585;47.566;19.056;2023-02-27T15:45:52;101011.40;;;6.30
65823;BMP180;52585;47.566;19.056;2023-02-27T15:48:19;101016.00;;;6.30
65823;BMP180;52585;47.566;19.056;2023-02-27T15:50:50;101020.60;;;6.30
65823;BMP180;52585;47.566;19.056;2023-02-27T15:53:26;101021.80;;;6.30
65823;BMP180;52585;47.566;19.056;2023-02-27T15:55:54;101029.00;;;6.30
65823;BMP180;52585;47.566;19.056;2023-02-27T15:58:32;101031.40;;;6.26
65823;BMP180;52585;47.566;19.056;2023-02-27T16:01:03;101032.60;;;6.24
65823;BMP180;52585;47.566;19.056;2023-02-27T16:03:43;101032.60;;;6.20
65823;BMP180;52585;47.566;19.056;2023-02-27T16:06:16;101036.80;;;6.20
65823;BMP180;52585;47.566;19.056;2023-02-27T16:09:04;101038.00;;;6.20
65823;BMP180;52585;47.566;19.056;2023-02-27T16:11:34;101047.00;;;6.10
65823;BMP180;52585;47.566;19.056;2023-02-27T16:14:02;101048.40;;;6.10
65823;BMP180;52585;47.566;19.056;2023-02-27T16:16:35;101049.20;;;6.02
65823;BMP180;52585;47.566;19.056;2023-02-27T16:19:25;101047.20;;;6.00
65823;BMP180;52585;47.566;19.056;2023-02-27T16:22:21;101054.80;;;6.00
65823;BMP180;52585;47.566;19.056;2023-02-27T16:24:48;101062.00;;;5.90
65823;BMP180;52585;47.566;19.056;2023-02-27T16:27:34;101066.00;;;5.90
65823;BMP180;52585;47.566;19.056;2023-02-27T16:30:00;101067.80;;;5.82
65823;BMP180;52585;47.566;19.056;2023-02-27T16:32:33;101073.60;;;5.80
65823;BMP180;52585;47.566;19.056;2023-02-27T16:35:07;101072.60;;;5.80
65823;BMP180;52585;47.566;19.056;2023-02-27T16:37:40;101080.80;;;5.70
65823;BMP180;52585;47.566;19.056;2023-02-27T16:40:20;101089.20;;;5.70
65823;BMP180;52585;47.566;19.056;2023-02-27T16:42:48;101091.00;;;5.68
65823;BMP180;52585;47.566;19.056;2023-02-27T16:45:18;101088.40;;;5.60
65823;BMP180;52585;47.566;19.056;2023-02-27T16:47:50;101098.20;;;5.60
65823;BMP180;52585;47.566;19.056;2023-02-27T16:50:33;101098.40;;;5.60
65823;BMP180;52585;47.566;19.056;2023-02-27T16:52:59;101106.00;;;5.50
65823;BMP180;52585;47.566;19.056;2023-02-27T16:55:26;101114.80;;;5.50
65823;BMP180;52585;47.566;19.056;2023-02-27T16:57:52;101118.40;;;5.50
65823;BMP180;52585;47.566;19.056;2023-02-27T17:00:19;101120.40;;;5.40
65823;BMP180;52585;47.566;19.056;2023-02-27T17:02:47;101119.00;;;5.40
65823;BMP180;52585;47.566;19.056;2023-02-27T17:05:14;101125.60;;;5.32
65823;BMP180;52585;47.566;19.056;2023-02-27T17:07:40;101129.20;;;5.30
65823;BMP180;52585;47.566;19.056;2023-02-27T17:10:09;101136.60;;;5.30
65823;BMP180;52585;47.566;19.056;2023-02-27T17:12:35;101134.00;;;5.20
65823;BMP180;52585;47.566;19.056;2023-02-27T17:15:02;101138.20;;;5.20
65823;BMP180;52585;47.566;19.056;2023-02-27T17:17:27;101137.00;;;5.12
65823;BMP180;52585;47.566;19.056;2023-02-27T17:19:53;101145.80;;;5.10
65823;BMP180;52585;47.566;19.056;2023-02-27T17:22:20;101146.20;;;5.10